Georgetown, Maine
Current Conditions -  °F | °C
As of 8:53 AM on Monday 24 Nov 2014 (Local Time) from KIWI Reporting Station
Moderate Rain Moderate Rain  
Wind Chill: 55°   Ceiling: 800
Heat Index: 55°   Visibility: 3mi
Dew Point: 54°   Wind: 10mph
Humidity: 96%   Direction: 150°SSE
Pressure: 29.87"   Gusts: 25mph
Location:  43.8°N, 69.75°W
Report Text: KIWI 241353Z AUTO 15009G22KT 110V180 3SM RA BR OVC008 13/12 A2987 RMK AO2 PRESFR SLP114 P0016 T01280122
Loading
Personal Weather Stations






























Interactive Weather Map New forecast layout! Learn more

10-Day Weather Forecast

Advertisements
Track Severe Weather on mobile